Brookland, AR (72417)

3:47 PM CDT on July 26, 2014 (GMT -0500)
Jonesboro Municipal (KJBR) Elev 262 ft | 35.83 °N, 90.65 °W | Change Station

Current weather conditions updated 54 minutes ago

Clear
Clear
92 °F
Feels Like 106 °F
N
15
Wind Variable Wind from SSW

Today is forecast to be Much Warmer than yesterday.

Today
High -- | Low -- °F
--% Chance of Precip.
Yesterday
High -- | Low -- °F
Precip. -- in
6:05 AM 8:11 PM
Waning Crescent, 0% visible
Pressure 29.91 in
Visibility 10.0 miles
Clouds Clear
Heat Index 106 °F
Dew Point 77 °F
Humidity 62%
Rainfall 0.00 in
Snow Depth Not available.
UV 10 out of 12
Pollen 6.20 out of 12
Air Quality Not available.
Flu Activity Not available.
METAR KJBR 261953Z AUTO 21013KT 10SM CLR 33/25 A2992 RMK AO2 SLP129 T03330250

More Conditions Fewer Conditions

Pressure 29.91 in
Visibility 10.0 miles
Clouds Clear
Heat Index 106 °F
Dew Point 77 °F
Humidity 62%
Rainfall 0.00 in
Snow Depth Not available.
UV 10 out of 12
Pollen 6.20 out of 12
Air Quality Not available.
Flu Activity Not available.
METAR KJBR 261953Z AUTO 21013KT 10SM CLR 33/25 A2992 RMK AO2 SLP129 T03330250

More Conditions Fewer Conditions

10-Day Weather Forecast

Almanac

Astronomy

Jul. 26, 2014 Rise Set
Actual Time 6:05 AM CDT 8:11 PM CDT
Civil Twilight 5:36 AM CDT 8:40 PM CDT
Nautical Twilight 5:01 AM CDT 9:15 PM CDT
Astronomical Twilight 4:23 AM CDT 9:53 PM CDT
Moon 5:55 AM CDT 7:49 PM CDT
Length of Visible Light 15h 03m
Length of Day
14h 06m
Tomorrow will be 1m 33s shorter.
Waning Crescent, 0% of the Moon is Illuminated
Today
Waning Crescent
Jul 26
New
Aug 3
First Quarter
Aug 10
Full
Aug 17
Last Quarter

Today's Extremes

State Highs State Lows

Community

WunderPhotos

Upload Photos

1,737,699 photos uploaded!

Nearby

Snow Depth

Station Depth Elevation
No new snow has been reported.

Earthquake Activity

City Distance Mag. Time & Date
No recent earthquake activity has been reported nearby.
Minimum magnitude displayed is 2.5.

Coastal Water Temperatures

Place Temperature
No Stations Reporting

Nearby Weather Stations

Station Location Temp. Heat Index Dew Point Humidity Wind Precip. Elev Updated Type
MesoWest BETHEL , Brookland, AR 89 °F 86 °F - - North  at  - 0.00 in / hr 288 ft 2:55 PM CDT MADIS
Carriage Hill, Paragould, AR 94.3 °F 110 °F 78 °F 59% SSW  at  5.8 mph 0.00 in / hr 300 ft 3:47 PM CDT Rapid Fire
William White Subdivision, Paragould, AR 94.3 °F 112 °F 79 °F 61% West  at  7.2 mph 0.00 in / hr 331 ft 3:47 PM CDT Rapid Fire
MesoWest MARDUK , Marmaduke, AR 99 °F 93 °F - - North  at  - 0.00 in / hr 272 ft 2:35 PM CDT MADIS
MesoWest HARRIS , Harrisburg, AR 90 °F 87 °F - - North  at  - 0.00 in / hr 250 ft 12:30 PM CDT MADIS
MesoWest OKEAN , O'Kean, AR 89 °F 86 °F - - North  at  - 0.00 in / hr 274 ft 2:45 PM CDT MADIS
MesoWest OTWELL , Weiner, AR 87 °F 84 °F - - North  at  - 0.00 in / hr 250 ft 1:20 PM CDT MADIS

Show More Stations Show Fewer Stations